Namao — CZ9742 — position and weather

sailwx.info

Track history (hours):
 
Tides and Currents Weather Stations Pressure Air Temp Water Temp Dewpoint Dewpoint Depression Visibility Wind Speed Wind Dir Waves Ship Positions

Oceanographic research ship Namao (Canada)

Last reported at 2018-Dec-10 18:00 UTC. Time now 2018-Dec-10 19:24 UTC.
Position N 50°36' W 096°54'.

Wind from 310 at 5 knots

Barometer 1016.5 mb
Air temperature -5.8 ° C
Dewpoint -8.9 ° C

Date/timePositionNaut miles runAvg speedWind from/ knotsBaromVisibWave heightAir tempDewpointWater temp
2018-Dec-10 18:00N 50°36' W 096°54'0 0.0 310 / 51016.5 -5.8-8.9
2018-Dec-10 17:00N 50°36' W 096°54'0 0.0 310 / 61017.0 -6.8-8.9
2018-Dec-10 16:00N 50°36' W 096°54'0 0.0 310 / 71016.5 -7.9-9.4
2018-Dec-10 15:00N 50°36' W 096°54'0 0.0 290 / 61016.2 -9.1-9.9
2018-Dec-10 14:00N 50°36' W 096°54'0 0.0 250 / 11015.9 -11.0-11.3
2018-Dec-10 13:00N 50°36' W 096°54'0 0.0 240 / 41015.9 -10.6-11.3
2018-Dec-10 12:00N 50°36' W 096°54'0 0.0 240 / 21015.6 -10.4-11.5
2018-Dec-10 11:00N 50°36' W 096°54'0 0.0 260 / 41015.6 -9.2-10.9
2018-Dec-10 10:00N 50°36' W 096°54'0 0.0 260 / 61015.7 -8.9-10.8
2018-Dec-10 09:00N 50°36' W 096°54'0 0.0 210 / 31016.3 -11.8-12.9
2018-Dec-10 08:00N 50°36' W 096°54'0 0.0 220 / 31016.5 -12.3-13.4
2018-Dec-10 07:00N 50°36' W 096°54'0 0.0 180 / 71017.3 -13.0-14.0
2018-Dec-10 06:00N 50°36' W 096°54'0 0.0 180 / 71018.1 -13.7-14.9
2018-Dec-10 05:00N 50°36' W 096°54'0 0.0 180 / 61018.6 -13.4-14.8
2018-Dec-10 04:00N 50°36' W 096°54'0 0.0 180 / 51018.8 -13.5-14.9
2018-Dec-10 03:00N 50°36' W 096°54'0 0.0 170 / 61019.3 -12.8-14.4
2018-Dec-10 02:00N 50°36' W 096°54'0 0.0 180 / 61020.2 -12.7-14.3
2018-Dec-10 01:00N 50°36' W 096°54'0 0.0 180 / 61020.7 -12.3-14.3
2018-Dec-09 23:00N 50°36' W 096°54'0 0.0 170 / 71021.8 -11.2-14.8
2018-Dec-09 22:00N 50°36' W 096°54'0 0.0 180 / 101021.7 -10.6-14.8
2018-Dec-09 21:00N 50°36' W 096°54'0 0.0 180 / 101022.1 -10.6-14.8
2018-Dec-09 20:00N 50°36' W 096°54'0 0.0 180 / 131022.7 -11.6-15.4
2018-Dec-09 19:00N 50°36' W 096°54'0 0.0 190 / 101022.9 -12.0-15.7
2018-Dec-09 18:00N 50°36' W 096°54'0 0.0 190 / 91024.1 -12.5-16.0
2018-Dec-09 17:00N 50°36' W 096°54'0 0.0 180 / 61024.5 -13.6-16.4
2018-Dec-09 16:00N 50°36' W 096°54'0 0.0 180 / 71025.0 -15.5-17.4
2018-Dec-09 15:00N 50°36' W 096°54'0 0.0 170 / 21025.1 -16.0-17.6
2018-Dec-09 14:00N 50°36' W 096°54'0 0.0 210 / 41025.4 -16.5-17.6
2018-Dec-09 13:00N 50°36' W 096°54'0 0.0 190 / 31025.1 -16.4-17.6
2018-Dec-09 12:00N 50°36' W 096°54'0 0.0 260 / 11025.1 -15.3-16.3
2018-Dec-09 11:00N 50°36' W 096°54'0 0.0 260 / 61024.9 -14.8-15.7
2018-Dec-09 10:00N 50°36' W 096°54'0 0.0 240 / 51024.8 -14.8-15.6
2018-Dec-09 09:00N 50°36' W 096°54'0 0.0 250 / 61024.9 -14.6-15.3
2018-Dec-09 08:00N 50°36' W 096°54'0 0.0 230 / 31024.8 -15.5-16.2
2018-Dec-09 07:00N 50°36' W 096°54'0 0.0 240 / 11025.1 -14.7-15.3
2018-Dec-09 06:00N 50°36' W 096°54'0 0.0 200 / 21024.7 -15.3-16.0
2018-Dec-09 05:00N 50°36' W 096°54'0 0.0 180 / 51024.3 -14.2-14.5
2018-Dec-09 04:00N 50°36' W 096°54'0 0.0 180 / 41024.3 -13.4-13.5
2018-Dec-09 03:00N 50°36' W 096°54'0 0.0 230 / 21023.9 -12.5-12.7
2018-Dec-09 02:00N 50°36' W 096°54'0 0.0 180 / 61024.1 -11.7-12.1
2018-Dec-09 01:00N 50°36' W 096°54'0 0.0 210 / 81023.0 -9.9-11.2
2018-Dec-09 00:00N 50°36' W 096°54'0 0.0 180 / 121023.0 -11.0-12.3
2018-Dec-08 23:00N 50°36' W 096°54'0 0.0 180 / 81023.9 -9.6-12.0
2018-Dec-08 22:00N 50°36' W 096°54'0 0.0 190 / 111022.7 -8.1-11.8
2018-Dec-08 21:00N 50°36' W 096°54'0 0.0 190 / 131021.9 -7.4-12.0
2018-Dec-08 20:00N 50°36' W 096°54'0 0.0 190 / 141022.4 -7.4-12.1
2018-Dec-08 19:00N 50°36' W 096°54'0 0.0 190 / 111023.4 -7.7-12.1
2018-Dec-08 18:00N 50°36' W 096°54'0 0.0 190 / 141023.6 -9.2-13.2
2018-Dec-08 17:00N 50°36' W 096°54'0 0.0 190 / 151024.4 -10.8-14.1
2018-Dec-08 16:00N 50°36' W 096°54'0 0.0 190 / 161024.5 -11.9-14.6
2018-Dec-08 15:00N 50°36' W 096°54'0 0.0 190 / 131024.9 -12.8-15.2
2018-Dec-08 14:00N 50°36' W 096°54'0 0.0 190 / 131024.9 -13.8-15.7
2018-Dec-08 13:00N 50°36' W 096°54'0 0.0 190 / 91025.7 -13.8-15.4
2018-Dec-08 12:00N 50°36' W 096°54'0 0.0 190 / 101025.7 -13.8-15.3
2018-Dec-08 11:00N 50°36' W 096°54'0 0.0 180 / 81026.2 -14.6-16.1
2018-Dec-08 10:00N 50°36' W 096°54'0 0.0 180 / 71026.5 -14.7-16.9
2018-Dec-08 09:00N 50°36' W 096°54'0 0.0 180 / 81027.3 -15.8-17.6
2018-Dec-08 08:00N 50°36' W 096°54'0 0.0 180 / 81027.3 -15.9-17.7
2018-Dec-08 07:00N 50°36' W 096°54'0 0.0 180 / 51027.1 -16.0-17.8
2018-Dec-08 06:00N 50°36' W 096°54'0 0.0 190 / 61027.0 -15.8-17.6
2018-Dec-08 05:00N 50°36' W 096°54'0 0.0 180 / 51026.9 -15.3-17.2
2018-Dec-08 04:00N 50°36' W 096°54'0 0.0 180 / 51027.0 -15.1-16.8
2018-Dec-08 03:00N 50°36' W 096°54'0 0.0 180 / 61026.8 -14.9-16.5
2018-Dec-08 02:00N 50°36' W 096°54'0 0.0 180 / 41026.9 -13.6-15.7
2018-Dec-08 01:00N 50°36' W 096°54'0 0.0 210 / 81026.4 -12.3-14.9
2018-Dec-08 00:00N 50°36' W 096°54'0 0.0 200 / 81026.2 -12.0-14.7
2018-Dec-07 23:00N 50°36' W 096°54'0 0.0 200 / 61026.2 -11.1-14.4
2018-Dec-07 22:00N 50°36' W 096°54'0 0.0 190 / 101025.4 -9.6-13.9
2018-Dec-07 21:00N 50°36' W 096°54'0 0.0 180 / 91025.3 -9.2-14.0
2018-Dec-07 20:00N 50°36' W 096°54'0 0.0 180 / 91025.4 -8.7-13.7
2018-Dec-07 19:00N 50°36' W 096°54'0 0.0 180 / 81026.0 -9.0-13.8
2018-Dec-07 18:00N 50°36' W 096°54'0 0.0 170 / 61026.6 -9.9-14.2
2018-Dec-07 17:00N 50°36' W 096°54'0 0.0 210 / 31027.1 -10.8-14.7
2018-Dec-07 16:00N 50°36' W 096°54'0 0.0 200 / 51027.0 -13.6-15.7
2018-Dec-07 15:00N 50°36' W 096°54'0 0.0 180 / 51026.8 -15.4-16.8
2018-Dec-07 14:00N 50°36' W 096°54'0 0.0 180 / 51026.5 -15.8-17.0
2018-Dec-07 13:00N 50°36' W 096°54'0 0.0 170 / 51026.8 -14.1-15.5
2018-Dec-07 12:00N 50°36' W 096°54'0 0.0 160 / 61026.2 -13.5-15.1
2018-Dec-07 11:00N 50°36' W 096°54'0 0.0 170 / 31026.3 -13.6-15.3
2018-Dec-07 10:00N 50°36' W 096°54'0 0.0 210 / 31026.5 -14.0-15.7
2018-Dec-07 09:00N 50°36' W 096°54'0 0.0 210 / 31026.4 -14.5-16.2
2018-Dec-07 08:00N 50°36' W 096°54'0 0.0 240 / 31025.7 -14.8-16.5
2018-Dec-07 07:00N 50°36' W 096°54'0 0.0 240 / 41026.0 -15.6-17.1
2018-Dec-07 06:00N 50°36' W 096°54'0 0.0 230 / 51026.3 -16.0-17.4
2018-Dec-07 05:00N 50°36' W 096°54'0 0.0 220 / 61025.8 -15.7-17.3
2018-Dec-07 04:00N 50°36' W 096°54'0 0.0 210 / 51026.0 -15.6-17.3
2018-Dec-07 03:00N 50°36' W 096°54'0 0.0 210 / 71026.1 -14.6-16.9
2018-Dec-07 02:00N 50°36' W 096°54'0 0.0 190 / 81026.6 -14.7-16.9
2018-Dec-07 01:00N 50°36' W 096°54'0 0.0 200 / 71027.4 -15.5-18.1
2018-Dec-07 00:00N 50°36' W 096°54'0 0.0 200 / 81028.1 -16.2-19.2
2018-Dec-06 23:00N 50°36' W 096°54'0 0.0 190 / 81028.4 -17.1-20.3
2018-Dec-06 22:00N 50°36' W 096°54'0 0.0 190 / 81028.6 -17.8-21.2
2018-Dec-06 21:00N 50°36' W 096°54'0 0.0 190 / 71028.9 -18.1-21.8
2018-Dec-06 20:00N 50°36' W 096°54'0 0.0 190 / 61029.1 -17.2-21.5
2018-Dec-06 19:00N 50°36' W 096°54'0 0.0 180 / 71029.9 -18.7-22.6
2018-Dec-06 18:00N 50°36' W 096°54'0 0.0 180 / 71030.8 -18.9-22.5
2018-Dec-06 17:00N 50°36' W 096°54'0 0.0 220 / 41031.5 -20.8-24.1
2018-Dec-06 16:00N 50°36' W 096°54'0 0.0 230 / 51031.9 -23.8-26.8
2018-Dec-06 15:00N 50°36' W 096°54'0 0.0 230 / 51032.1 -24.9-28.0
2018-Dec-06 14:00N 50°36' W 096°54'0 0.0 240 / 51032.1 -25.0-27.9
2018-Dec-06 13:00N 50°36' W 096°54'0 0.0 240 / 51032.5 -25.2-28.1
2018-Dec-06 12:00N 50°36' W 096°54'0 0.0 250 / 51032.5 -25.4-28.4
2018-Dec-06 11:00N 50°36' W 096°54'0 0.0 250 / 61032.2 -25.3-28.2
2018-Dec-06 10:00N 50°36' W 096°54'0 0.0 270 / 51031.9 -24.6-27.5
2018-Dec-06 09:00N 50°36' W 096°54'0 0.0 260 / 71031.4 -23.8-26.6
2018-Dec-06 08:00N 50°36' W 096°54'0 0.0 270 / 61031.0 -23.2-25.8
2018-Dec-06 07:00N 50°36' W 096°54'0 0.0 270 / 51031.0 -22.7-25.2
2018-Dec-06 06:00N 50°36' W 096°54'0 0.0 300 / 61030.5 -21.7-24.5
2018-Dec-06 05:00N 50°36' W 096°54'0 0.0 310 / 81029.5 -21.3-24.1
2018-Dec-06 04:00N 50°36' W 096°54'0 0.0 310 / 81029.0 -20.6-23.6
2018-Dec-06 03:00N 50°36' W 096°54'0 0.0 320 / 81028.3 -19.9-23.1
2018-Dec-06 02:00N 50°36' W 096°54'0 0.0 310 / 91027.3 -19.0-22.2
2018-Dec-06 01:00N 50°36' W 096°54'0 0.0 320 / 111025.9 -17.5-20.8
2018-Dec-06 00:00N 50°36' W 096°54'0 0.0 320 / 71025.0 -16.0-19.4
2018-Dec-05 23:00N 50°36' W 096°54'0 0.0 320 / 111022.9 -14.1-17.7
2018-Dec-05 22:00N 50°36' W 096°54'0 0.0 310 / 101021.3 -11.9-16.0
2018-Dec-05 21:00N 50°36' W 096°54'0 0.0 300 / 91019.9 -10.1-13.6
2018-Dec-05 20:00N 50°36' W 096°54'0 0.0 330 / 111018.8 -8.3-12.5
2018-Dec-05 19:00N 50°36' W 096°54'0 0.0 320 / 101018.2 -8.5-12.4
2018-Dec-05 18:00N 50°36' W 096°54'0 0.0 320 / 101017.8 -8.3-12.4
2018-Dec-05 17:00N 50°36' W 096°54'0 0.0 320 / 91017.6 -8.6-11.6
2018-Dec-05 16:00N 50°36' W 096°54'0 0.0 310 / 61016.9 -8.4-9.2
2018-Dec-05 15:00N 50°36' W 096°54'0 0.0 300 / 41016.0 -8.6-9.2
2018-Dec-05 14:00N 50°36' W 096°54'0 0.0 290 / 41015.5 -8.7-9.9
2018-Dec-05 13:00N 50°36' W 096°54'0 0.0 270 / 31015.0 -8.7-10.6
2018-Dec-05 12:00N 50°36' W 096°54'0 0.0 270 / 41014.7 -8.6-10.8
2018-Dec-05 11:00N 50°36' W 096°54'0 0.0 270 / 31014.8 -8.4-11.0
2018-Dec-05 10:00N 50°36' W 096°54'0 0.0 270 / 41014.6 -8.4-11.0
2018-Dec-05 09:00N 50°36' W 096°54'0 0.0 280 / 51014.4 -8.1-11.2
2018-Dec-05 08:00N 50°36' W 096°54'0 0.0 270 / 81013.8 -7.6-11.3
2018-Dec-05 07:00N 50°36' W 096°54'0 0.0 260 / 61013.7 -7.5-11.5
2018-Dec-05 06:00N 50°36' W 096°54'0 0.0 260 / 81013.7 -7.3-11.6
2018-Dec-05 05:00N 50°36' W 096°54'0 0.0 280 / 71013.4 -6.8-11.1
2018-Dec-05 04:00N 50°36' W 096°54'0 0.0 270 / 71013.5 -6.3-9.3
2018-Dec-05 03:00N 50°36' W 096°54'0 0.0 270 / 61013.3 -5.7-8.6
2018-Dec-05 02:00N 50°36' W 096°54'0 0.0 260 / 41013.3 -5.0-8.7
2018-Dec-05 01:00N 50°36' W 096°54'0 0.0 250 / 41013.1 -5.0-8.0
2018-Dec-05 00:00N 50°36' W 096°54'0 0.0 230 / 31013.0 -4.9-7.9
2018-Dec-04 23:00N 50°36' W 096°54'0 0.0 230 / 51013.2 -4.8-7.9
2018-Dec-04 22:00N 50°36' W 096°54'0 0.0 200 / 51013.3 -5.3-6.2
2018-Dec-04 21:00N 50°36' W 096°54'0 0.0 190 / 61013.4 -5.8-6.0
2018-Dec-04 20:00N 50°36' W 096°54'0 0.0 200 / 71014.0 -6.0-6.2
2018-Dec-04 19:00N 50°36' W 096°54'0 0.0 190 / 71014.5 -6.9-7.1
2018-Dec-04 18:00N 50°36' W 096°54'0 0.0 190 / 101015.2 -7.4-7.5
2018-Dec-04 17:00N 50°36' W 096°54'0 0.0 200 / 51016.1 -8.1-8.2
2018-Dec-04 16:00N 50°36' W 096°54'0 0.0 200 / 71016.2 -9.6-9.8
2018-Dec-04 15:00N 50°36' W 096°54'0 0.0 200 / 81016.6 -10.3-10.4
2018-Dec-04 14:00N 50°36' W 096°54'0 0.0 200 / 81016.7 -8.8-8.9
2018-Dec-04 13:00N 50°36' W 096°54'0 0.0 200 / 91017.7 -8.3-8.3
2018-Dec-04 12:00N 50°36' W 096°54'0 0.0 200 / 61017.9 -8.3-8.3
2018-Dec-04 11:00N 50°36' W 096°54'0 0.0 200 / 61019.0 -7.7-7.7
2018-Dec-04 10:00N 50°36' W 096°54'0 0.0 210 / 61019.3 -6.3-6.3
2018-Dec-04 09:00N 50°36' W 096°54'0 0.0 190 / 61020.1 -7.5-7.5
2018-Dec-04 08:00N 50°36' W 096°54'0 0.0 190 / 61020.7 -7.4-7.4
2018-Dec-04 07:00N 50°36' W 096°54'0 0.0 190 / 51021.1 -6.0-6.0
2018-Dec-04 06:00N 50°36' W 096°54'0 0.0 200 / 61021.4 -5.9-5.8
2018-Dec-04 05:00N 50°36' W 096°54'0 0.0 210 / 81021.6 -5.7-5.7
2018-Dec-04 04:00N 50°36' W 096°54'0 0.0 210 / 71021.8 -5.5-5.5
2018-Dec-04 03:00N 50°36' W 096°54'0 0.0 200 / 61022.2 -5.7-5.7
2018-Dec-04 02:00N 50°36' W 096°54'0 0.0 220 / 71023.1 -5.6-5.6
2018-Dec-04 01:00N 50°36' W 096°54'0 0.0 210 / 91023.2 -5.5-5.6
2018-Dec-04 00:00N 50°36' W 096°54'0 0.0 210 / 91023.3 -5.4-5.5
2018-Dec-03 23:00N 50°36' W 096°54'0 0.0 200 / 91023.9 -5.5-5.7
2018-Dec-03 22:00N 50°36' W 096°54'0 0.0 180 / 91024.3 -5.8-5.9
2018-Dec-03 21:00N 50°36' W 096°54'0 0.0 180 / 91024.4 -6.0-6.1
2018-Dec-03 20:00N 50°36' W 096°54'0 0.0 180 / 91025.0 -6.6-6.6
2018-Dec-03 19:00N 50°36' W 096°54'0 0.0 180 / 91025.7 -7.3-7.4
2018-Dec-03 18:00N 50°36' W 096°54'0 0.0 180 / 81026.4 -7.7-7.8
2018-Dec-03 17:00N 50°36' W 096°54'0 0.0 180 / 71027.2 -8.2-8.3
2018-Dec-03 16:00N 50°36' W 096°54'0 0.0 180 / 71027.2 -8.6-8.6
2018-Dec-03 15:00N 50°36' W 096°54'0 0.0 180 / 61027.4 -8.9-9.0
2018-Dec-03 14:00N 50°36' W 096°54'0 0.0 180 / 61027.4 -9.0-9.0
2018-Dec-03 13:00N 50°36' W 096°54'0 0.0 190 / 21027.6 -9.0-9.0
2018-Dec-03 12:00N 50°36' W 096°54'0 0.0 180 / 31027.4 -9.2-9.3
2018-Dec-03 11:00N 50°36' W 096°54'0 0.0 220 / 11027.5 -9.3-9.4
2018-Dec-03 10:00N 50°36' W 096°54'0 0.0 260 / 41027.4 -9.1-9.2
2018-Dec-03 09:00N 50°36' W 096°54'0 0.0 290 / 31027.3 -8.6-8.7
2018-Dec-03 08:00N 50°36' W 096°54'0 0.0 280 / 21027.2 -8.3-8.4
2018-Dec-03 07:00N 50°36' W 096°54'0 0.0 330 / 31027.1 -8.1-8.1
2018-Dec-03 06:00N 50°36' W 096°54'0 0.0 350 / 31027.1 -7.8-7.9
2018-Dec-03 05:00N 50°36' W 096°54'0 0.0 330 / 31027.0 -7.8-7.9
2018-Dec-03 04:00N 50°36' W 096°54'0 0.0 010 / 71026.5 -7.7-7.8
2018-Dec-03 03:00N 50°36' W 096°54'0 0.0 030 / 71026.2 -7.4-7.6
2018-Dec-03 02:00N 50°36' W 096°54'0 0.0 360 / 91026.1 -7.3-7.4
2018-Dec-03 01:00N 50°36' W 096°54'0 0.0 020 / 91025.8 -7.0-7.2
2018-Dec-03 00:00N 50°36' W 096°54'0 0.0 010 / 121025.3 -6.7-6.8
2018-Dec-02 23:00N 50°36' W 096°54'0 0.0 030 / 111024.7 -6.1-6.2
2018-Dec-02 22:00N 50°36' W 096°54'0 0.0 020 / 111024.1 -5.8-5.9
2018-Dec-02 21:00N 50°36' W 096°54'0 0.0 020 / 101023.8 -5.4-5.5
2018-Dec-02 20:00N 50°36' W 096°54'0 0.0 010 / 71023.7 -4.9-5.1
2018-Dec-02 19:00N 50°36' W 096°54'0 0.0 010 / 61023.7 -4.9-5.0
2018-Dec-02 18:00N 50°36' W 096°54'0 0.0 070 / 51023.5 -4.7-4.8
2018-Dec-02 17:00N 50°36' W 096°54'0 0.0 050 / 81023.7 -4.9-5.0
2018-Dec-02 16:00N 50°36' W 096°54'0 0.0 030 / 91023.2 -5.2-5.2
2018-Dec-02 15:00N 50°36' W 096°54'0 0.0 020 / 101022.4 -5.4-5.4
2018-Dec-02 14:00N 50°36' W 096°54'0 0.0 020 / 91021.9 -5.6-5.6
2018-Dec-02 13:00N 50°36' W 096°54'0 0.0 020 / 121021.6 -5.7-5.7
2018-Dec-02 12:00N 50°36' W 096°54'0 0.0 020 / 121021.4 -5.9-5.9
2018-Dec-02 11:00N 50°36' W 096°54'0 0.0 010 / 121021.2 -6.1-6.1
2018-Dec-02 10:00N 50°36' W 096°54'0 0.0 010 / 141021.2 -6.2-6.2
2018-Dec-02 09:00N 50°36' W 096°54'0 0.0 010 / 131021.6 -6.4-6.4
2018-Dec-02 08:00N 50°36' W 096°54'0 0.0 010 / 111021.9 -6.5-6.5
2018-Dec-02 07:00N 50°36' W 096°54'0 0.0 010 / 101022.0 -6.6-6.6
2018-Dec-02 06:00N 50°36' W 096°54'0 0.0 020 / 81022.2 -6.7-6.7
2018-Dec-02 05:00N 50°36' W 096°54'0 0.0 020 / 91022.1 -6.9-6.9
2018-Dec-02 04:00N 50°36' W 096°54'0 0.0 020 / 81022.2 -7.0-7.1
2018-Dec-02 03:00N 50°36' W 096°54'0 0.0 020 / 91022.0 -7.1-7.1
2018-Dec-02 02:00N 50°36' W 096°54'0 0.0 030 / 101021.9 -7.0-7.1
2018-Dec-02 01:00N 50°36' W 096°54'0 0.0 020 / 101021.4 -6.8-6.8
2018-Dec-02 00:00N 50°36' W 096°54'0 0.0 040 / 91021.3 -6.7-6.7
2018-Dec-01 23:00N 50°36' W 096°54'0 0.0 020 / 111020.9 -6.7-6.8
2018-Dec-01 22:00N 50°36' W 096°54'0 0.0 020 / 111020.6 -7.0-7.0
2018-Dec-01 21:00N 50°36' W 096°54'0 0.0 020 / 101020.2 -7.2-7.2
2018-Dec-01 20:00N 50°36' W 096°54'0 0.0 020 / 101020.0 -7.0-7.1
2018-Dec-01 19:00N 50°36' W 096°54'0 0.0 030 / 71020.3 -6.6-6.6
2018-Dec-01 18:00N 50°36' W 096°54'0 0.0 040 / 61020.6 -6.4-6.4
2018-Dec-01 17:00N 50°36' W 096°54'0 0.0 070 / 51021.5 -6.2-6.3
2018-Dec-01 16:00N 50°36' W 096°54'0 0.0 080 / 41021.1 -6.1-6.1
2018-Dec-01 15:00N 50°36' W 096°54'0 0.0 080 / 41021.2 -6.1-6.2
2018-Dec-01 14:00N 50°36' W 096°54'0 0.0 130 / 51021.2 -6.9-6.9
2018-Dec-01 13:00N 50°36' W 096°54'0 0.0 100 / 61020.9 -6.9-6.9
2018-Dec-01 12:00N 50°36' W 096°54'0 0.0 080 / 71019.6 -7.1-7.2
2018-Dec-01 11:00N 50°36' W 096°54'0 0.0 080 / 71019.6 -7.0-7.0
2018-Dec-01 10:00N 50°36' W 096°54'0 0.0 020 / 41020.2 -8.9-9.0
2018-Dec-01 09:00N 50°36' W 096°54'0 0.0 360 / 31020.2 -10.1-10.2
2018-Dec-01 08:00N 50°36' W 096°54'0 0.0 020 / 41020.1 -11.1-11.2
2018-Dec-01 06:00N 50°36' W 096°54'0 0.0 210 / 11020.1 -14.0-14.3
2018-Dec-01 05:00N 50°36' W 096°54'0 0.0 200 / 11019.7 -13.3-13.4
2018-Dec-01 04:00N 50°36' W 096°54'0 0.0 240 / 21019.6 -13.1-13.3
2018-Dec-01 03:00N 50°36' W 096°54'0 0.0 1019.0 -10.7-10.9
2018-Dec-01 02:00N 50°36' W 096°54'0 0.0 1018.8 -11.2-11.4
2018-Dec-01 01:00N 50°36' W 096°54'0 0.0 150 / 21018.3 -12.1-12.3
2018-Dec-01 00:00N 50°36' W 096°54'0 0.0 170 / 31018.0 -11.7-11.8
2018-Nov-30 23:00N 50°36' W 096°54'0 0.0 170 / 31017.2 -9.5-9.6
2018-Nov-30 22:00N 50°36' W 096°54'0 0.0 150 / 51016.6 -8.4-8.5
2018-Nov-30 21:00N 50°36' W 096°54'0 0.0 150 / 51015.7 -7.5-7.6
2018-Nov-30 20:00N 50°36' W 096°54'0 0.0 320 / 21015.2 -5.1-6.1
2018-Nov-30 19:00N 50°36' W 096°54'0 0.0 310 / 41014.9 -4.8-5.9
2018-Nov-30 18:00N 50°36' W 096°54'   290 / 41015.1 -5.3-5.7
Track history (hours):
 
Tides and Currents Weather Stations Pressure Air Temp Water Temp Dewpoint Dewpoint Depression Visibility Wind Speed Wind Dir Waves Ship Positions

Oceanographic research ship Namao (Canada)

Last reported at 2018-Dec-10 18:00 UTC. Time now 2018-Dec-10 19:24 UTC.
Position N 50°36' W 096°54'.

Wind from 310 at 5 knots

Barometer 1016.5 mb
Air temperature -5.8 ° C
Dewpoint -8.9 ° C

Date/timePositionNaut miles runAvg speedWind from/ knotsBaromVisibWave heightAir tempDewpointWater temp
2018-Dec-10 18:00N 50°36' W 096°54'0 0.0 310 / 51016.5 -5.8-8.9
2018-Dec-10 17:00N 50°36' W 096°54'0 0.0 310 / 61017.0 -6.8-8.9
2018-Dec-10 16:00N 50°36' W 096°54'0 0.0 310 / 71016.5 -7.9-9.4
2018-Dec-10 15:00N 50°36' W 096°54'0 0.0 290 / 61016.2 -9.1-9.9
2018-Dec-10 14:00N 50°36' W 096°54'0 0.0 250 / 11015.9 -11.0-11.3
2018-Dec-10 13:00N 50°36' W 096°54'0 0.0 240 / 41015.9 -10.6-11.3
2018-Dec-10 12:00N 50°36' W 096°54'0 0.0 240 / 21015.6 -10.4-11.5
2018-Dec-10 11:00N 50°36' W 096°54'0 0.0 260 / 41015.6 -9.2-10.9
2018-Dec-10 10:00N 50°36' W 096°54'0 0.0 260 / 61015.7 -8.9-10.8
2018-Dec-10 09:00N 50°36' W 096°54'0 0.0 210 / 31016.3 -11.8-12.9
2018-Dec-10 08:00N 50°36' W 096°54'0 0.0 220 / 31016.5 -12.3-13.4
2018-Dec-10 07:00N 50°36' W 096°54'0 0.0 180 / 71017.3 -13.0-14.0
2018-Dec-10 06:00N 50°36' W 096°54'0 0.0 180 / 71018.1 -13.7-14.9
2018-Dec-10 05:00N 50°36' W 096°54'0 0.0 180 / 61018.6 -13.4-14.8
2018-Dec-10 04:00N 50°36' W 096°54'0 0.0 180 / 51018.8 -13.5-14.9
2018-Dec-10 03:00N 50°36' W 096°54'0 0.0 170 / 61019.3 -12.8-14.4
2018-Dec-10 02:00N 50°36' W 096°54'0 0.0 180 / 61020.2 -12.7-14.3
2018-Dec-10 01:00N 50°36' W 096°54'0 0.0 180 / 61020.7 -12.3-14.3
2018-Dec-09 23:00N 50°36' W 096°54'0 0.0 170 / 71021.8 -11.2-14.8
2018-Dec-09 22:00N 50°36' W 096°54'0 0.0 180 / 101021.7 -10.6-14.8
2018-Dec-09 21:00N 50°36' W 096°54'0 0.0 180 / 101022.1 -10.6-14.8
2018-Dec-09 20:00N 50°36' W 096°54'0 0.0 180 / 131022.7 -11.6-15.4
2018-Dec-09 19:00N 50°36' W 096°54'0 0.0 190 / 101022.9 -12.0-15.7
2018-Dec-09 18:00N 50°36' W 096°54'0 0.0 190 / 91024.1 -12.5-16.0
2018-Dec-09 17:00N 50°36' W 096°54'0 0.0 180 / 61024.5 -13.6-16.4
2018-Dec-09 16:00N 50°36' W 096°54'0 0.0 180 / 71025.0 -15.5-17.4
2018-Dec-09 15:00N 50°36' W 096°54'0 0.0 170 / 21025.1 -16.0-17.6
2018-Dec-09 14:00N 50°36' W 096°54'0 0.0 210 / 41025.4 -16.5-17.6
2018-Dec-09 13:00N 50°36' W 096°54'0 0.0 190 / 31025.1 -16.4-17.6
2018-Dec-09 12:00N 50°36' W 096°54'0 0.0 260 / 11025.1 -15.3-16.3
2018-Dec-09 11:00N 50°36' W 096°54'0 0.0 260 / 61024.9 -14.8-15.7
2018-Dec-09 10:00N 50°36' W 096°54'0 0.0 240 / 51024.8 -14.8-15.6
2018-Dec-09 09:00N 50°36' W 096°54'0 0.0 250 / 61024.9 -14.6-15.3
2018-Dec-09 08:00N 50°36' W 096°54'0 0.0 230 / 31024.8 -15.5-16.2
2018-Dec-09 07:00N 50°36' W 096°54'0 0.0 240 / 11025.1 -14.7-15.3
2018-Dec-09 06:00N 50°36' W 096°54'0 0.0 200 / 21024.7 -15.3-16.0
2018-Dec-09 05:00N 50°36' W 096°54'0 0.0 180 / 51024.3 -14.2-14.5
2018-Dec-09 04:00N 50°36' W 096°54'0 0.0 180 / 41024.3 -13.4-13.5
2018-Dec-09 03:00N 50°36' W 096°54'0 0.0 230 / 21023.9 -12.5-12.7
2018-Dec-09 02:00N 50°36' W 096°54'0 0.0 180 / 61024.1 -11.7-12.1
2018-Dec-09 01:00N 50°36' W 096°54'0 0.0 210 / 81023.0 -9.9-11.2
2018-Dec-09 00:00N 50°36' W 096°54'0 0.0 180 / 121023.0 -11.0-12.3
2018-Dec-08 23:00N 50°36' W 096°54'0 0.0 180 / 81023.9 -9.6-12.0
2018-Dec-08 22:00N 50°36' W 096°54'0 0.0 190 / 111022.7 -8.1-11.8
2018-Dec-08 21:00N 50°36' W 096°54'0 0.0 190 / 131021.9 -7.4-12.0
2018-Dec-08 20:00N 50°36' W 096°54'0 0.0 190 / 141022.4 -7.4-12.1
2018-Dec-08 19:00N 50°36' W 096°54'0 0.0 190 / 111023.4 -7.7-12.1
2018-Dec-08 18:00N 50°36' W 096°54'0 0.0 190 / 141023.6 -9.2-13.2
2018-Dec-08 17:00N 50°36' W 096°54'0 0.0 190 / 151024.4 -10.8-14.1
2018-Dec-08 16:00N 50°36' W 096°54'0 0.0 190 / 161024.5 -11.9-14.6
2018-Dec-08 15:00N 50°36' W 096°54'0 0.0 190 / 131024.9 -12.8-15.2
2018-Dec-08 14:00N 50°36' W 096°54'0 0.0 190 / 131024.9 -13.8-15.7
2018-Dec-08 13:00N 50°36' W 096°54'0 0.0 190 / 91025.7 -13.8-15.4
2018-Dec-08 12:00N 50°36' W 096°54'0 0.0 190 / 101025.7 -13.8-15.3
2018-Dec-08 11:00N 50°36' W 096°54'0 0.0 180 / 81026.2 -14.6-16.1
2018-Dec-08 10:00N 50°36' W 096°54'0 0.0 180 / 71026.5 -14.7-16.9
2018-Dec-08 09:00N 50°36' W 096°54'0 0.0 180 / 81027.3 -15.8-17.6
2018-Dec-08 08:00N 50°36' W 096°54'0 0.0 180 / 81027.3 -15.9-17.7
2018-Dec-08 07:00N 50°36' W 096°54'0 0.0 180 / 51027.1 -16.0-17.8
2018-Dec-08 06:00N 50°36' W 096°54'0 0.0 190 / 61027.0 -15.8-17.6
2018-Dec-08 05:00N 50°36' W 096°54'0 0.0 180 / 51026.9 -15.3-17.2
2018-Dec-08 04:00N 50°36' W 096°54'0 0.0 180 / 51027.0 -15.1-16.8
2018-Dec-08 03:00N 50°36' W 096°54'0 0.0 180 / 61026.8 -14.9-16.5
2018-Dec-08 02:00N 50°36' W 096°54'0 0.0 180 / 41026.9 -13.6-15.7
2018-Dec-08 01:00N 50°36' W 096°54'0 0.0 210 / 81026.4 -12.3-14.9
2018-Dec-08 00:00N 50°36' W 096°54'0 0.0 200 / 81026.2 -12.0-14.7
2018-Dec-07 23:00N 50°36' W 096°54'0 0.0 200 / 61026.2 -11.1-14.4
2018-Dec-07 22:00N 50°36' W 096°54'0 0.0 190 / 101025.4 -9.6-13.9
2018-Dec-07 21:00N 50°36' W 096°54'0 0.0 180 / 91025.3 -9.2-14.0
2018-Dec-07 20:00N 50°36' W 096°54'0 0.0 180 / 91025.4 -8.7-13.7
2018-Dec-07 19:00N 50°36' W 096°54'0 0.0 180 / 81026.0 -9.0-13.8
2018-Dec-07 18:00N 50°36' W 096°54'0 0.0 170 / 61026.6 -9.9-14.2
2018-Dec-07 17:00N 50°36' W 096°54'0 0.0 210 / 31027.1 -10.8-14.7
2018-Dec-07 16:00N 50°36' W 096°54'0 0.0 200 / 51027.0 -13.6-15.7
2018-Dec-07 15:00N 50°36' W 096°54'0 0.0 180 / 51026.8 -15.4-16.8
2018-Dec-07 14:00N 50°36' W 096°54'0 0.0 180 / 51026.5 -15.8-17.0
2018-Dec-07 13:00N 50°36' W 096°54'0 0.0 170 / 51026.8 -14.1-15.5
2018-Dec-07 12:00N 50°36' W 096°54'0 0.0 160 / 61026.2 -13.5-15.1
2018-Dec-07 11:00N 50°36' W 096°54'0 0.0 170 / 31026.3 -13.6-15.3
2018-Dec-07 10:00N 50°36' W 096°54'0 0.0 210 / 31026.5 -14.0-15.7
2018-Dec-07 09:00N 50°36' W 096°54'0 0.0 210 / 31026.4 -14.5-16.2
2018-Dec-07 08:00N 50°36' W 096°54'0 0.0 240 / 31025.7 -14.8-16.5
2018-Dec-07 07:00N 50°36' W 096°54'0 0.0 240 / 41026.0 -15.6-17.1
2018-Dec-07 06:00N 50°36' W 096°54'0 0.0 230 / 51026.3 -16.0-17.4
2018-Dec-07 05:00N 50°36' W 096°54'0 0.0 220 / 61025.8 -15.7-17.3
2018-Dec-07 04:00N 50°36' W 096°54'0 0.0 210 / 51026.0 -15.6-17.3
2018-Dec-07 03:00N 50°36' W 096°54'0 0.0 210 / 71026.1 -14.6-16.9
2018-Dec-07 02:00N 50°36' W 096°54'0 0.0 190 / 81026.6 -14.7-16.9
2018-Dec-07 01:00N 50°36' W 096°54'0 0.0 200 / 71027.4 -15.5-18.1
2018-Dec-07 00:00N 50°36' W 096°54'0 0.0 200 / 81028.1 -16.2-19.2
2018-Dec-06 23:00N 50°36' W 096°54'0 0.0 190 / 81028.4 -17.1-20.3
2018-Dec-06 22:00N 50°36' W 096°54'0 0.0 190 / 81028.6 -17.8-21.2
2018-Dec-06 21:00N 50°36' W 096°54'0 0.0 190 / 71028.9 -18.1-21.8
2018-Dec-06 20:00N 50°36' W 096°54'0 0.0 190 / 61029.1 -17.2-21.5
2018-Dec-06 19:00N 50°36' W 096°54'0 0.0 180 / 71029.9 -18.7-22.6
2018-Dec-06 18:00N 50°36' W 096°54'0 0.0 180 / 71030.8 -18.9-22.5
2018-Dec-06 17:00N 50°36' W 096°54'0 0.0 220 / 41031.5 -20.8-24.1
2018-Dec-06 16:00N 50°36' W 096°54'0 0.0 230 / 51031.9 -23.8-26.8
2018-Dec-06 15:00N 50°36' W 096°54'0 0.0 230 / 51032.1 -24.9-28.0
2018-Dec-06 14:00N 50°36' W 096°54'0 0.0 240 / 51032.1 -25.0-27.9
2018-Dec-06 13:00N 50°36' W 096°54'0 0.0 240 / 51032.5 -25.2-28.1
2018-Dec-06 12:00N 50°36' W 096°54'0 0.0 250 / 51032.5 -25.4-28.4
2018-Dec-06 11:00N 50°36' W 096°54'0 0.0 250 / 61032.2 -25.3-28.2
2018-Dec-06 10:00N 50°36' W 096°54'0 0.0 270 / 51031.9 -24.6-27.5
2018-Dec-06 09:00N 50°36' W 096°54'0 0.0 260 / 71031.4 -23.8-26.6
2018-Dec-06 08:00N 50°36' W 096°54'0 0.0 270 / 61031.0 -23.2-25.8
2018-Dec-06 07:00N 50°36' W 096°54'0 0.0 270 / 51031.0 -22.7-25.2
2018-Dec-06 06:00N 50°36' W 096°54'0 0.0 300 / 61030.5 -21.7-24.5
2018-Dec-06 05:00N 50°36' W 096°54'0 0.0 310 / 81029.5 -21.3-24.1
2018-Dec-06 04:00N 50°36' W 096°54'0 0.0 310 / 81029.0 -20.6-23.6
2018-Dec-06 03:00N 50°36' W 096°54'0 0.0 320 / 81028.3 -19.9-23.1
2018-Dec-06 02:00N 50°36' W 096°54'0 0.0 310 / 91027.3 -19.0-22.2
2018-Dec-06 01:00N 50°36' W 096°54'0 0.0 320 / 111025.9 -17.5-20.8
2018-Dec-06 00:00N 50°36' W 096°54'0 0.0 320 / 71025.0 -16.0-19.4
2018-Dec-05 23:00N 50°36' W 096°54'0 0.0 320 / 111022.9 -14.1-17.7
2018-Dec-05 22:00N 50°36' W 096°54'0 0.0 310 / 101021.3 -11.9-16.0
2018-Dec-05 21:00N 50°36' W 096°54'0 0.0 300 / 91019.9 -10.1-13.6
2018-Dec-05 20:00N 50°36' W 096°54'0 0.0 330 / 111018.8 -8.3-12.5
2018-Dec-05 19:00N 50°36' W 096°54'0 0.0 320 / 101018.2 -8.5-12.4
2018-Dec-05 18:00N 50°36' W 096°54'0 0.0 320 / 101017.8 -8.3-12.4
2018-Dec-05 17:00N 50°36' W 096°54'0 0.0 320 / 91017.6 -8.6-11.6
2018-Dec-05 16:00N 50°36' W 096°54'0 0.0 310 / 61016.9 -8.4-9.2
2018-Dec-05 15:00N 50°36' W 096°54'0 0.0 300 / 41016.0 -8.6-9.2
2018-Dec-05 14:00N 50°36' W 096°54'0 0.0 290 / 41015.5 -8.7-9.9
2018-Dec-05 13:00N 50°36' W 096°54'0 0.0 270 / 31015.0 -8.7-10.6
2018-Dec-05 12:00N 50°36' W 096°54'0 0.0 270 / 41014.7 -8.6-10.8
2018-Dec-05 11:00N 50°36' W 096°54'0 0.0 270 / 31014.8 -8.4-11.0
2018-Dec-05 10:00N 50°36' W 096°54'0 0.0 270 / 41014.6 -8.4-11.0
2018-Dec-05 09:00N 50°36' W 096°54'0 0.0 280 / 51014.4 -8.1-11.2
2018-Dec-05 08:00N 50°36' W 096°54'0 0.0 270 / 81013.8 -7.6-11.3
2018-Dec-05 07:00N 50°36' W 096°54'0 0.0 260 / 61013.7 -7.5-11.5
2018-Dec-05 06:00N 50°36' W 096°54'0 0.0 260 / 81013.7 -7.3-11.6
2018-Dec-05 05:00N 50°36' W 096°54'0 0.0 280 / 71013.4 -6.8-11.1
2018-Dec-05 04:00N 50°36' W 096°54'0 0.0 270 / 71013.5 -6.3-9.3
2018-Dec-05 03:00N 50°36' W 096°54'0 0.0 270 / 61013.3 -5.7-8.6
2018-Dec-05 02:00N 50°36' W 096°54'0 0.0 260 / 41013.3 -5.0-8.7
2018-Dec-05 01:00N 50°36' W 096°54'0 0.0 250 / 41013.1 -5.0-8.0
2018-Dec-05 00:00N 50°36' W 096°54'0 0.0 230 / 31013.0 -4.9-7.9
2018-Dec-04 23:00N 50°36' W 096°54'0 0.0 230 / 51013.2 -4.8-7.9
2018-Dec-04 22:00N 50°36' W 096°54'0 0.0 200 / 51013.3 -5.3-6.2
2018-Dec-04 21:00N 50°36' W 096°54'0 0.0 190 / 61013.4 -5.8-6.0
2018-Dec-04 20:00N 50°36' W 096°54'0 0.0 200 / 71014.0 -6.0-6.2
2018-Dec-04 19:00N 50°36' W 096°54'0 0.0 190 / 71014.5 -6.9-7.1
2018-Dec-04 18:00N 50°36' W 096°54'0 0.0 190 / 101015.2 -7.4-7.5
2018-Dec-04 17:00N 50°36' W 096°54'0 0.0 200 / 51016.1 -8.1-8.2
2018-Dec-04 16:00N 50°36' W 096°54'0 0.0 200 / 71016.2 -9.6-9.8
2018-Dec-04 15:00N 50°36' W 096°54'0 0.0 200 / 81016.6 -10.3-10.4
2018-Dec-04 14:00N 50°36' W 096°54'0 0.0 200 / 81016.7 -8.8-8.9
2018-Dec-04 13:00N 50°36' W 096°54'0 0.0 200 / 91017.7 -8.3-8.3
2018-Dec-04 12:00N 50°36' W 096°54'0 0.0 200 / 61017.9 -8.3-8.3
2018-Dec-04 11:00N 50°36' W 096°54'0 0.0 200 / 61019.0 -7.7-7.7
2018-Dec-04 10:00N 50°36' W 096°54'0 0.0 210 / 61019.3 -6.3-6.3
2018-Dec-04 09:00N 50°36' W 096°54'0 0.0 190 / 61020.1 -7.5-7.5
2018-Dec-04 08:00N 50°36' W 096°54'0 0.0 190 / 61020.7 -7.4-7.4
2018-Dec-04 07:00N 50°36' W 096°54'0 0.0 190 / 51021.1 -6.0-6.0
2018-Dec-04 06:00N 50°36' W 096°54'0 0.0 200 / 61021.4 -5.9-5.8
2018-Dec-04 05:00N 50°36' W 096°54'0 0.0 210 / 81021.6 -5.7-5.7
2018-Dec-04 04:00N 50°36' W 096°54'0 0.0 210 / 71021.8 -5.5-5.5
2018-Dec-04 03:00N 50°36' W 096°54'0 0.0 200 / 61022.2 -5.7-5.7
2018-Dec-04 02:00N 50°36' W 096°54'0 0.0 220 / 71023.1 -5.6-5.6
2018-Dec-04 01:00N 50°36' W 096°54'0 0.0 210 / 91023.2 -5.5-5.6
2018-Dec-04 00:00N 50°36' W 096°54'0 0.0 210 / 91023.3 -5.4-5.5
2018-Dec-03 23:00N 50°36' W 096°54'0 0.0 200 / 91023.9 -5.5-5.7
2018-Dec-03 22:00N 50°36' W 096°54'0 0.0 180 / 91024.3 -5.8-5.9
2018-Dec-03 21:00N 50°36' W 096°54'0 0.0 180 / 91024.4 -6.0-6.1
2018-Dec-03 20:00N 50°36' W 096°54'0 0.0 180 / 91025.0 -6.6-6.6
2018-Dec-03 19:00N 50°36' W 096°54'0 0.0 180 / 91025.7 -7.3-7.4
2018-Dec-03 18:00N 50°36' W 096°54'0 0.0 180 / 81026.4 -7.7-7.8
2018-Dec-03 17:00N 50°36' W 096°54'0 0.0 180 / 71027.2 -8.2-8.3
2018-Dec-03 16:00N 50°36' W 096°54'0 0.0 180 / 71027.2 -8.6-8.6
2018-Dec-03 15:00N 50°36' W 096°54'0 0.0 180 / 61027.4 -8.9-9.0
2018-Dec-03 14:00N 50°36' W 096°54'0 0.0 180 / 61027.4 -9.0-9.0
2018-Dec-03 13:00N 50°36' W 096°54'0 0.0 190 / 21027.6 -9.0-9.0
2018-Dec-03 12:00N 50°36' W 096°54'0 0.0 180 / 31027.4 -9.2-9.3
2018-Dec-03 11:00N 50°36' W 096°54'0 0.0 220 / 11027.5 -9.3-9.4
2018-Dec-03 10:00N 50°36' W 096°54'0 0.0 260 / 41027.4 -9.1-9.2
2018-Dec-03 09:00N 50°36' W 096°54'0 0.0 290 / 31027.3 -8.6-8.7
2018-Dec-03 08:00N 50°36' W 096°54'0 0.0 280 / 21027.2 -8.3-8.4
2018-Dec-03 07:00N 50°36' W 096°54'0 0.0 330 / 31027.1 -8.1-8.1
2018-Dec-03 06:00N 50°36' W 096°54'0 0.0 350 / 31027.1 -7.8-7.9
2018-Dec-03 05:00N 50°36' W 096°54'0 0.0 330 / 31027.0 -7.8-7.9
2018-Dec-03 04:00N 50°36' W 096°54'0 0.0 010 / 71026.5 -7.7-7.8
2018-Dec-03 03:00N 50°36' W 096°54'0 0.0 030 / 71026.2 -7.4-7.6
2018-Dec-03 02:00N 50°36' W 096°54'0 0.0 360 / 91026.1 -7.3-7.4
2018-Dec-03 01:00N 50°36' W 096°54'0 0.0 020 / 91025.8 -7.0-7.2
2018-Dec-03 00:00N 50°36' W 096°54'0 0.0 010 / 121025.3 -6.7-6.8
2018-Dec-02 23:00N 50°36' W 096°54'0 0.0 030 / 111024.7 -6.1-6.2
2018-Dec-02 22:00N 50°36' W 096°54'0 0.0 020 / 111024.1 -5.8-5.9
2018-Dec-02 21:00N 50°36' W 096°54'0 0.0 020 / 101023.8 -5.4-5.5
2018-Dec-02 20:00N 50°36' W 096°54'0 0.0 010 / 71023.7 -4.9-5.1
2018-Dec-02 19:00N 50°36' W 096°54'0 0.0 010 / 61023.7 -4.9-5.0
2018-Dec-02 18:00N 50°36' W 096°54'0 0.0 070 / 51023.5 -4.7-4.8
2018-Dec-02 17:00N 50°36' W 096°54'0 0.0 050 / 81023.7 -4.9-5.0
2018-Dec-02 16:00N 50°36' W 096°54'0 0.0 030 / 91023.2 -5.2-5.2
2018-Dec-02 15:00N 50°36' W 096°54'0 0.0 020 / 101022.4 -5.4-5.4
2018-Dec-02 14:00N 50°36' W 096°54'0 0.0 020 / 91021.9 -5.6-5.6
2018-Dec-02 13:00N 50°36' W 096°54'0 0.0 020 / 121021.6 -5.7-5.7
2018-Dec-02 12:00N 50°36' W 096°54'0 0.0 020 / 121021.4 -5.9-5.9
2018-Dec-02 11:00N 50°36' W 096°54'0 0.0 010 / 121021.2 -6.1-6.1
2018-Dec-02 10:00N 50°36' W 096°54'0 0.0 010 / 141021.2 -6.2-6.2
2018-Dec-02 09:00N 50°36' W 096°54'0 0.0 010 / 131021.6 -6.4-6.4
2018-Dec-02 08:00N 50°36' W 096°54'0 0.0 010 / 111021.9 -6.5-6.5
2018-Dec-02 07:00N 50°36' W 096°54'0 0.0 010 / 101022.0 -6.6-6.6
2018-Dec-02 06:00N 50°36' W 096°54'0 0.0 020 / 81022.2 -6.7-6.7
2018-Dec-02 05:00N 50°36' W 096°54'0 0.0 020 / 91022.1 -6.9-6.9
2018-Dec-02 04:00N 50°36' W 096°54'0 0.0 020 / 81022.2 -7.0-7.1
2018-Dec-02 03:00N 50°36' W 096°54'0 0.0 020 / 91022.0 -7.1-7.1
2018-Dec-02 02:00N 50°36' W 096°54'0 0.0 030 / 101021.9 -7.0-7.1
2018-Dec-02 01:00N 50°36' W 096°54'0 0.0 020 / 101021.4 -6.8-6.8
2018-Dec-02 00:00N 50°36' W 096°54'0 0.0 040 / 91021.3 -6.7-6.7
2018-Dec-01 23:00N 50°36' W 096°54'0 0.0 020 / 111020.9 -6.7-6.8
2018-Dec-01 22:00N 50°36' W 096°54'0 0.0 020 / 111020.6 -7.0-7.0
2018-Dec-01 21:00N 50°36' W 096°54'0 0.0 020 / 101020.2 -7.2-7.2
2018-Dec-01 20:00N 50°36' W 096°54'0 0.0 020 / 101020.0 -7.0-7.1
2018-Dec-01 19:00N 50°36' W 096°54'0 0.0 030 / 71020.3 -6.6-6.6
2018-Dec-01 18:00N 50°36' W 096°54'0 0.0 040 / 61020.6 -6.4-6.4
2018-Dec-01 17:00N 50°36' W 096°54'0 0.0 070 / 51021.5 -6.2-6.3
2018-Dec-01 16:00N 50°36' W 096°54'0 0.0 080 / 41021.1 -6.1-6.1
2018-Dec-01 15:00N 50°36' W 096°54'0 0.0 080 / 41021.2 -6.1-6.2
2018-Dec-01 14:00N 50°36' W 096°54'0 0.0 130 / 51021.2 -6.9-6.9
2018-Dec-01 13:00N 50°36' W 096°54'0 0.0 100 / 61020.9 -6.9-6.9
2018-Dec-01 12:00N 50°36' W 096°54'0 0.0 080 / 71019.6 -7.1-7.2
2018-Dec-01 11:00N 50°36' W 096°54'0 0.0 080 / 71019.6 -7.0-7.0
2018-Dec-01 10:00N 50°36' W 096°54'0 0.0 020 / 41020.2 -8.9-9.0
2018-Dec-01 09:00N 50°36' W 096°54'0 0.0 360 / 31020.2 -10.1-10.2
2018-Dec-01 08:00N 50°36' W 096°54'0 0.0 020 / 41020.1 -11.1-11.2
2018-Dec-01 06:00N 50°36' W 096°54'0 0.0 210 / 11020.1 -14.0-14.3
2018-Dec-01 05:00N 50°36' W 096°54'0 0.0 200 / 11019.7 -13.3-13.4
2018-Dec-01 04:00N 50°36' W 096°54'0 0.0 240 / 21019.6 -13.1-13.3
2018-Dec-01 03:00N 50°36' W 096°54'0 0.0 1019.0 -10.7-10.9
2018-Dec-01 02:00N 50°36' W 096°54'0 0.0 1018.8 -11.2-11.4
2018-Dec-01 01:00N 50°36' W 096°54'0 0.0 150 / 21018.3 -12.1-12.3
2018-Dec-01 00:00N 50°36' W 096°54'0 0.0 170 / 31018.0 -11.7-11.8
2018-Nov-30 23:00N 50°36' W 096°54'0 0.0 170 / 31017.2 -9.5-9.6
2018-Nov-30 22:00N 50°36' W 096°54'0 0.0 150 / 51016.6 -8.4-8.5
2018-Nov-30 21:00N 50°36' W 096°54'0 0.0 150 / 51015.7 -7.5-7.6
2018-Nov-30 20:00N 50°36' W 096°54'0 0.0 320 / 21015.2 -5.1-6.1
2018-Nov-30 19:00N 50°36' W 096°54'0 0.0 310 / 41014.9 -4.8-5.9
2018-Nov-30 18:00N 50°36' W 096°54'   290 / 41015.1 -5.3-5.7

Dump ship's entire track history